createdAt,value
2016-07-28T00:01:13.962Z,67.54
2016-07-28T00:16:18.953Z,69.76
2016-07-28T00:31:20.190Z,69.76
2016-07-28T00:46:18.579Z,70.72
2016-07-28T01:01:18.593Z,71.59
2016-07-28T01:16:18.504Z,73.04
2016-07-28T01:31:26.845Z,75.39
2016-07-28T01:46:24.353Z,77.3
2016-07-28T02:01:18.979Z,76.25
2016-07-28T02:16:18.678Z,75.66
2016-07-28T02:31:18.648Z,76.29
2016-07-28T02:46:18.651Z,76.25
2016-07-28T03:01:14.073Z,75.84
2016-07-28T03:16:20.326Z,74.93
2016-07-28T03:31:25.455Z,76.17
2016-07-28T03:46:14.124Z,76.91
2016-07-28T04:01:20.322Z,76.51
2016-07-28T04:16:32.412Z,76.71
2016-07-28T04:31:31.083Z,75.84
2016-07-28T04:46:16.149Z,75.68
2016-07-28T05:01:14.157Z,76.07
2016-07-28T05:16:18.756Z,76.24
2016-07-28T05:31:18.811Z,74.6
2016-07-28T05:46:18.815Z,75.08
2016-07-28T06:01:14.195Z,74.62
2016-07-28T06:16:14.205Z,74.91
2016-07-28T06:31:14.214Z,75.69
2016-07-28T06:46:15.267Z,76.29
2016-07-28T07:01:14.233Z,75.81
2016-07-28T07:16:18.839Z,74.73
2016-07-28T07:31:14.257Z,74.04
2016-07-28T07:46:14.312Z,73.44
2016-07-28T08:01:14.280Z,71.93
2016-07-28T08:16:14.286Z,71.05
2016-07-28T08:31:14.311Z,72.24
2016-07-28T08:46:20.669Z,72.87
2016-07-28T09:01:19.387Z,74.19
2016-07-28T09:16:20.543Z,73.79
2016-07-28T09:31:19.286Z,74.28
2016-07-28T09:46:18.944Z,72.85
2016-07-28T10:01:19.601Z,70.02
2016-07-28T10:16:14.384Z,67.01
2016-07-28T10:31:14.376Z,66.57
2016-07-28T10:46:20.719Z,66.94
2016-07-28T11:01:14.398Z,68.56
2016-07-28T11:16:14.456Z,67.88
2016-07-28T11:31:14.414Z,66.73
2016-07-28T11:46:14.428Z,66.83
2016-07-28T12:01:16.432Z,67.84
2016-07-28T12:16:25.886Z,68.4
2016-07-28T12:31:19.402Z,68.42
2016-07-28T12:46:19.404Z,70.22
2016-07-28T13:01:22.694Z,69.54
2016-07-28T13:16:19.080Z,70.27
2016-07-28T13:31:19.135Z,73.68
2016-07-28T13:46:14.505Z,77.87
2016-07-28T14:01:14.523Z,79.62
2016-07-28T14:16:14.547Z,74.36
2016-07-28T14:31:14.542Z,75.62
2016-07-28T14:46:14.584Z,74.24
2016-07-28T15:01:14.550Z,72.82
2016-07-28T15:16:19.277Z,73.55
2016-07-28T15:31:14.572Z,73.01
2016-07-28T15:46:21.208Z,73.56
2016-07-28T16:01:25.970Z,71.37
2016-07-28T16:16:19.181Z,73.33
2016-07-28T16:31:14.611Z,75.12
2016-07-28T16:46:14.634Z,80.14
2016-07-28T17:01:25.381Z,81.78
2016-07-28T17:16:14.620Z,81.81
2016-07-28T17:31:32.201Z,82.73
2016-07-28T17:46:25.539Z,83.64
2016-07-28T18:01:25.655Z,83.5
2016-07-28T18:16:14.638Z,82.62
2016-07-28T18:31:14.654Z,82.1
2016-07-28T18:46:14.654Z,83.93
2016-07-28T19:01:19.704Z,85.03
2016-07-28T19:16:19.940Z,87.49
2016-07-28T19:31:25.092Z,88.36
2016-07-28T19:46:14.652Z,88.4
2016-07-28T20:01:14.659Z,90.33
2016-07-28T20:16:19.848Z,90.39
2016-07-28T20:46:37.925Z,91.08
2016-07-28T21:01:33.487Z,90.64
2016-07-28T21:16:21.334Z,90.94
2016-07-28T21:31:16.670Z,91.06
2016-07-28T22:16:14.694Z,91.19
2016-07-28T22:31:14.722Z,91.16
2016-07-28T22:46:14.705Z,91.47
2016-07-28T23:01:19.300Z,91.25
2016-07-28T23:16:14.722Z,91.12
2016-07-28T23:31:14.771Z,91.08
2016-07-28T23:46:14.746Z,91.15
